createdAt,value
2019-04-14T00:00:05.462Z,41.28
2019-04-14T00:02:38.151Z,41.33
2019-04-14T00:05:08.272Z,41.83
2019-04-14T00:07:36.325Z,42.50
2019-04-14T00:10:07.112Z,43.87
2019-04-14T00:12:34.385Z,42.40
2019-04-14T00:15:02.510Z,43.28
2019-04-14T00:17:30.609Z,44.23
2019-04-14T00:19:58.817Z,44.10
2019-04-14T00:22:28.063Z,43.45
2019-04-14T00:24:55.345Z,43.40
2019-04-14T00:27:23.644Z,42.00
2019-04-14T00:29:50.922Z,43.48
2019-04-14T00:32:18.356Z,43.30
2019-04-14T00:34:50.884Z,41.85
2019-04-14T00:37:35.876Z,43.52
2019-04-14T00:40:21.573Z,43.70
2019-04-14T00:42:51.584Z,44.13
2019-04-14T00:45:31.943Z,44.15
2019-04-14T00:48:03.380Z,45.65
2019-04-14T00:50:25.945Z,45.40
2019-04-14T00:52:54.420Z,41.90
2019-04-14T00:55:22.584Z,43.80
2019-04-14T00:57:50.875Z,42.05
2019-04-14T01:00:19.242Z,44.42
2019-04-14T01:02:47.441Z,42.90
2019-04-14T01:05:15.236Z,42.83
2019-04-14T01:07:43.440Z,42.93
2019-04-14T01:10:10.691Z,43.30
2019-04-14T01:12:38.786Z,42.23
2019-04-14T01:15:07.090Z,41.08
2019-04-14T01:17:35.244Z,43.87
2019-04-14T01:20:03.650Z,43.95
2019-04-14T01:22:31.478Z,43.58
2019-04-14T01:24:59.887Z,43.85
2019-04-14T01:27:27.755Z,41.73
2019-04-14T01:29:55.922Z,39.92
2019-04-14T01:32:24.074Z,43.95
2019-04-14T01:34:53.635Z,41.68
2019-04-14T01:37:20.328Z,41.55
2019-04-14T01:39:48.188Z,43.80
2019-04-14T01:42:15.896Z,40.50
2019-04-14T01:44:43.819Z,42.15
2019-04-14T01:47:11.680Z,43.30
2019-04-14T01:49:39.738Z,39.42
2019-04-14T01:52:17.181Z,42.80
2019-04-14T01:54:47.253Z,41.55
2019-04-14T01:57:17.482Z,42.62
2019-04-14T01:59:45.917Z,41.45
2019-04-14T02:02:16.168Z,42.70
2019-04-14T02:04:44.338Z,41.65
2019-04-14T02:07:12.334Z,44.18
2019-04-14T02:09:40.114Z,45.80
2019-04-14T02:12:08.431Z,44.35
2019-04-14T02:14:36.521Z,42.98
2019-04-14T02:17:04.935Z,41.77
2019-04-14T02:19:32.835Z,41.85
2019-04-14T02:22:00.712Z,42.40
2019-04-14T02:24:28.914Z,44.13
2019-04-14T02:26:56.973Z,41.30
2019-04-14T02:29:25.429Z,42.13
2019-04-14T02:32:27.264Z,44.95
2019-04-14T02:34:49.722Z,47.88
2019-04-14T02:37:19.197Z,44.42
2019-04-14T02:39:53.955Z,43.45
2019-04-14T02:47:46.378Z,44.93
2019-04-14T02:52:12.099Z,45.65
2019-04-14T02:54:51.682Z,44.70
2019-04-14T02:57:15.112Z,43.00
2019-04-14T02:59:41.587Z,45.85
2019-04-14T03:04:33.521Z,48.58
2019-04-14T03:07:05.471Z,43.38
2019-04-14T03:12:04.718Z,48.17
2019-04-14T03:14:30.796Z,44.60
2019-04-14T03:19:59.133Z,45.17
2019-04-14T03:22:33.000Z,45.23
2019-04-14T03:24:47.602Z,51.50
2019-04-14T03:27:40.370Z,43.17
2019-04-14T03:30:45.833Z,46.28
2019-04-14T03:33:18.394Z,43.92
2019-04-14T03:35:51.111Z,48.52
2019-04-14T03:37:50.552Z,47.38
2019-04-14T03:40:25.661Z,46.55
2019-04-14T03:42:53.997Z,46.18
2019-04-14T03:45:29.999Z,47.75
2019-04-14T03:48:15.093Z,46.08
2019-04-14T03:55:09.381Z,44.93
2019-04-14T03:57:21.433Z,47.08
2019-04-14T03:59:49.885Z,48.13
2019-04-14T04:02:18.246Z,46.55
2019-04-14T04:04:46.609Z,49.27
2019-04-14T04:07:14.901Z,45.90
2019-04-14T04:09:47.541Z,47.20
2019-04-14T04:12:15.946Z,46.15
2019-04-14T04:14:44.209Z,43.58
2019-04-14T04:17:25.480Z,44.63
2019-04-14T04:20:00.212Z,45.25
2019-04-14T04:22:41.266Z,45.35
2019-04-14T04:25:20.331Z,42.45
2019-04-14T04:27:55.088Z,45.98
2019-04-14T04:30:39.085Z,44.30
2019-04-14T04:33:08.699Z,43.85
2019-04-14T04:35:37.677Z,46.28
2019-04-14T04:38:22.387Z,44.88
2019-04-14T04:40:50.677Z,45.10
2019-04-14T04:43:18.936Z,46.60
2019-04-14T04:45:47.288Z,46.37
2019-04-14T04:48:15.200Z,44.75
2019-04-14T04:50:43.163Z,43.92
2019-04-14T04:53:11.527Z,45.38
2019-04-14T04:55:39.513Z,44.08
2019-04-14T04:58:07.775Z,42.48
2019-04-14T05:00:35.349Z,41.70
2019-04-14T05:03:03.686Z,42.27
2019-04-14T05:05:49.302Z,42.93
2019-04-14T05:08:17.407Z,39.85
2019-04-14T05:10:46.328Z,39.08
2019-04-14T05:13:14.147Z,42.15
2019-04-14T05:15:43.041Z,41.42
2019-04-14T05:18:12.053Z,39.13
2019-04-14T05:20:39.810Z,42.90
2019-04-14T05:23:07.988Z,41.42
2019-04-14T05:25:36.476Z,38.30
2019-04-14T05:28:04.798Z,43.42
2019-04-14T05:30:32.864Z,40.12
2019-04-14T05:33:00.916Z,38.78
2019-04-14T05:35:29.120Z,42.43
2019-04-14T05:37:57.324Z,41.88
2019-04-14T05:40:25.611Z,44.83
2019-04-14T05:42:53.708Z,41.98
2019-04-14T05:45:22.015Z,40.65
2019-04-14T05:47:50.151Z,40.85
2019-04-14T05:50:18.146Z,38.40
2019-04-14T05:52:45.461Z,36.80
2019-04-14T05:55:13.511Z,39.33
2019-04-14T05:57:41.649Z,36.68
2019-04-14T06:00:10.621Z,38.10
2019-04-14T06:02:37.931Z,39.30
2019-04-14T06:05:06.423Z,40.83
2019-04-14T06:07:33.937Z,37.45
2019-04-14T06:10:01.226Z,38.75
2019-04-14T06:12:28.512Z,35.30
2019-04-14T06:14:55.829Z,36.33
2019-04-14T06:17:23.123Z,36.85
2019-04-14T06:19:50.409Z,34.18
2019-04-14T06:22:17.721Z,34.43
2019-04-14T06:24:45.037Z,36.10
2019-04-14T06:27:12.358Z,34.40
2019-04-14T06:29:39.633Z,33.55
2019-04-14T06:32:20.650Z,37.55
2019-04-14T06:35:05.706Z,38.67
2019-04-14T06:37:34.641Z,34.88
2019-04-14T06:40:03.571Z,35.40
2019-04-14T06:42:30.884Z,32.10
2019-04-14T06:44:58.217Z,31.65
2019-04-14T06:47:25.489Z,33.95
2019-04-14T06:49:52.782Z,32.63
2019-04-14T06:52:20.105Z,31.25
2019-04-14T06:54:47.393Z,31.57
2019-04-14T06:57:14.681Z,30.17
2019-04-14T06:59:42.001Z,29.00
2019-04-14T07:02:09.288Z,29.77
2019-04-14T07:04:36.581Z,28.70
2019-04-14T07:07:03.893Z,28.17
2019-04-14T07:09:31.207Z,29.07
2019-04-14T07:11:58.535Z,30.08
2019-04-14T07:14:25.859Z,27.40
2019-04-14T07:16:53.101Z,26.73
2019-04-14T07:19:20.393Z,27.98
2019-04-14T07:21:47.680Z,28.90
2019-04-14T07:24:14.996Z,28.42
2019-04-14T07:26:42.387Z,25.37
2019-04-14T07:29:09.685Z,26.93
2019-04-14T07:31:50.437Z,28.25
2019-04-14T07:34:28.393Z,28.73
2019-04-14T07:37:13.639Z,35.85
2019-04-14T07:39:45.309Z,32.15
2019-04-14T07:42:17.000Z,31.30
2019-04-14T07:45:00.873Z,37.03
2019-04-14T07:47:38.758Z,31.93
2019-04-14T07:50:19.321Z,33.05
2019-04-14T07:52:53.966Z,35.88
2019-04-14T07:55:28.892Z,35.03
2019-04-14T07:58:00.794Z,34.95
2019-04-14T08:00:35.522Z,32.23
2019-04-14T08:03:04.448Z,37.90
2019-04-14T08:05:36.342Z,35.98
2019-04-14T08:08:03.725Z,34.85
2019-04-14T08:10:31.018Z,41.18
2019-04-14T08:12:58.303Z,37.38
2019-04-14T08:15:25.610Z,37.25
2019-04-14T08:17:52.925Z,32.75
2019-04-14T08:20:27.444Z,34.03
2019-04-14T08:22:49.177Z,30.55
2019-04-14T08:25:16.457Z,32.98
2019-04-14T08:27:43.781Z,40.85
2019-04-14T08:30:11.074Z,30.88
2019-04-14T08:32:38.402Z,29.10
2019-04-14T08:35:06.059Z,30.55
2019-04-14T08:37:33.346Z,33.55
2019-04-14T08:40:00.665Z,29.72
2019-04-14T08:42:35.301Z,33.50
2019-04-14T08:45:07.049Z,30.25
2019-04-14T08:47:38.865Z,36.05
2019-04-14T08:50:07.784Z,31.12
2019-04-14T08:52:52.870Z,31.50
2019-04-14T08:55:24.854Z,31.73
2019-04-14T08:57:53.797Z,31.48
2019-04-14T09:00:22.725Z,30.57
2019-04-14T09:02:51.673Z,38.35
2019-04-14T09:05:26.325Z,33.48
2019-04-14T09:07:57.945Z,31.23
2019-04-14T09:10:29.862Z,33.35
2019-04-14T09:12:58.795Z,32.60
2019-04-14T09:15:26.111Z,30.70
2019-04-14T09:17:53.404Z,35.40
2019-04-14T09:20:20.697Z,31.17
2019-04-14T09:22:48.012Z,34.58
2019-04-14T09:25:15.311Z,34.50
2019-04-14T09:27:42.592Z,33.80
2019-04-14T09:30:09.976Z,32.30
2019-04-14T09:32:37.268Z,31.48
2019-04-14T09:35:04.851Z,31.80
2019-04-14T09:37:32.145Z,38.13
2019-04-14T09:39:59.463Z,32.85
2019-04-14T09:42:26.753Z,34.65
2019-04-14T09:44:54.043Z,33.80
2019-04-14T09:47:21.358Z,32.55
2019-04-14T09:49:48.645Z,31.68
2019-04-14T09:52:15.950Z,31.37
2019-04-14T09:54:43.249Z,36.93
2019-04-14T09:57:10.536Z,31.90
2019-04-14T09:59:37.856Z,33.18
2019-04-14T10:02:05.178Z,32.17
2019-04-14T10:04:32.471Z,38.05
2019-04-14T10:06:59.763Z,32.93
2019-04-14T10:09:27.242Z,34.85
2019-04-14T10:11:56.433Z,30.20
2019-04-14T10:14:23.481Z,28.95
2019-04-14T10:16:50.809Z,32.50
2019-04-14T10:19:18.092Z,30.72
2019-04-14T10:21:45.377Z,26.77
2019-04-14T10:24:12.684Z,28.25
2019-04-14T10:26:39.972Z,29.25
2019-04-14T10:29:07.284Z,29.20
2019-04-14T10:31:34.578Z,32.80
2019-04-14T10:34:01.886Z,31.85
2019-04-14T10:36:29.202Z,32.15
2019-04-14T10:38:56.490Z,32.75
2019-04-14T10:41:23.800Z,30.12
2019-04-14T10:43:51.095Z,31.40
2019-04-14T10:46:18.409Z,28.55
2019-04-14T10:48:45.698Z,29.63
2019-04-14T10:51:12.988Z,28.57
2019-04-14T10:53:40.316Z,27.90
2019-04-14T10:56:07.654Z,30.30
2019-04-14T10:58:35.004Z,26.10
2019-04-14T11:01:02.428Z,26.20
2019-04-14T11:03:30.338Z,26.12
2019-04-14T11:06:02.241Z,27.48
2019-04-14T11:08:29.593Z,24.12
2019-04-14T11:10:56.944Z,26.10
2019-04-14T11:13:24.236Z,27.98
2019-04-14T11:15:51.549Z,29.07
2019-04-14T11:18:18.845Z,22.02
2019-04-14T11:20:46.164Z,25.50
2019-04-14T11:23:13.435Z,23.90
2019-04-14T11:25:40.763Z,26.02
2019-04-14T11:28:08.049Z,26.23
2019-04-14T11:30:35.344Z,23.70
2019-04-14T11:33:10.065Z,21.80
2019-04-14T11:35:41.963Z,23.60
2019-04-14T11:38:13.701Z,24.12
2019-04-14T11:40:45.368Z,26.23
2019-04-14T11:43:12.683Z,21.33
2019-04-14T11:45:39.989Z,21.07
2019-04-14T11:48:07.385Z,22.60
2019-04-14T11:50:34.722Z,23.35
2019-04-14T11:53:02.005Z,22.10
2019-04-14T11:55:29.321Z,20.55
2019-04-14T11:57:56.623Z,26.27
2019-04-14T12:00:37.405Z,21.93
2019-04-14T12:03:06.364Z,21.62
2019-04-14T12:05:43.981Z,21.45
2019-04-14T12:08:29.004Z,19.12
2019-04-14T12:10:56.324Z,23.05
2019-04-14T12:13:23.638Z,22.02
2019-04-14T12:15:50.930Z,18.95
2019-04-14T12:18:18.229Z,19.50
2019-04-14T12:20:45.541Z,18.35
2019-04-14T12:23:15.852Z,17.60
2019-04-14T12:25:41.809Z,17.30
2019-04-14T12:28:09.258Z,18.60
2019-04-14T12:30:37.667Z,19.00
2019-04-14T12:33:05.057Z,19.48
2019-04-14T12:35:32.349Z,19.40
2019-04-14T12:37:59.637Z,18.62
2019-04-14T12:40:26.952Z,18.50
2019-04-14T12:42:55.887Z,18.98
2019-04-14T12:45:27.794Z,16.90
2019-04-14T12:47:56.741Z,18.55
2019-04-14T12:50:28.620Z,19.15
2019-04-14T12:52:56.307Z,22.17
2019-04-14T12:55:23.598Z,16.60
2019-04-14T12:57:52.525Z,26.23
2019-04-14T13:00:21.483Z,15.30
2019-04-14T13:02:50.422Z,13.28
2019-04-14T13:05:17.716Z,13.72
2019-04-14T13:07:45.013Z,18.32
2019-04-14T13:10:12.341Z,14.10
2019-04-14T13:12:39.633Z,12.93
2019-04-14T13:15:06.922Z,14.03
2019-04-14T13:17:34.240Z,13.95
2019-04-14T13:20:01.532Z,12.78
2019-04-14T13:22:34.280Z,15.03
2019-04-14T13:24:57.797Z,12.50
2019-04-14T13:27:25.100Z,13.05
2019-04-14T13:29:52.405Z,13.43
2019-04-14T13:32:19.692Z,13.78
2019-04-14T13:34:46.984Z,15.03
2019-04-14T13:37:14.300Z,12.58
2019-04-14T13:39:41.593Z,13.95
2019-04-14T13:42:08.903Z,21.17
2019-04-14T13:44:36.208Z,23.67
2019-04-14T13:47:03.508Z,12.82
2019-04-14T13:49:30.824Z,13.05
2019-04-14T13:51:58.121Z,26.80
2019-04-14T13:54:25.405Z,13.58
2019-04-14T13:56:52.727Z,12.53
2019-04-14T13:59:20.043Z,11.85
2019-04-14T14:01:47.375Z,12.00
2019-04-14T14:04:14.657Z,10.90
2019-04-14T14:06:41.956Z,11.70
2019-04-14T14:09:11.138Z,24.05
2019-04-14T14:11:48.909Z,101.22
2019-04-14T14:14:36.046Z,169.17
2019-04-14T14:17:13.928Z,29.77
2019-04-14T14:19:42.892Z,17.48
2019-04-14T14:22:23.724Z,25.35
2019-04-14T14:24:55.580Z,66.45
2019-04-14T14:27:22.877Z,36.80
2019-04-14T14:29:50.167Z,12.90
2019-04-14T14:32:28.229Z,18.23
2019-04-14T14:34:55.542Z,10.30
2019-04-14T14:37:22.859Z,10.53
2019-04-14T14:39:50.205Z,8.60
2019-04-14T14:42:17.489Z,9.60
2019-04-14T14:44:46.440Z,8.85
2019-04-14T14:47:15.356Z,9.05
2019-04-14T14:49:59.244Z,9.33
2019-04-14T14:52:26.535Z,10.05
2019-04-14T14:54:53.845Z,10.30
2019-04-14T14:57:21.126Z,9.93
2019-04-14T14:59:48.412Z,9.23
2019-04-14T15:02:15.786Z,9.80
2019-04-14T15:04:43.097Z,9.45
2019-04-14T15:07:10.389Z,10.30
2019-04-14T15:09:37.670Z,9.00
2019-04-14T15:12:04.981Z,9.38
2019-04-14T15:14:32.270Z,9.50
2019-04-14T15:16:59.566Z,10.60
2019-04-14T15:19:26.883Z,10.43
2019-04-14T15:21:54.177Z,12.00
2019-04-14T15:24:21.484Z,11.88
2019-04-14T15:26:48.964Z,11.55
2019-04-14T15:29:16.425Z,11.88
2019-04-14T15:31:44.003Z,12.90
2019-04-14T15:34:11.286Z,11.80
2019-04-14T15:36:38.582Z,12.50
2019-04-14T15:39:06.639Z,12.95
2019-04-14T15:41:33.924Z,13.00
2019-04-14T15:44:01.244Z,12.90
2019-04-14T15:46:28.528Z,12.37
2019-04-14T15:48:55.820Z,12.82
2019-04-14T15:51:23.140Z,13.62
2019-04-14T15:53:50.426Z,13.28
2019-04-14T15:56:22.072Z,13.35
2019-04-14T15:58:51.020Z,13.08
2019-04-14T16:01:29.016Z,13.13
2019-04-14T16:04:14.057Z,14.43
2019-04-14T16:06:42.983Z,14.25
2019-04-14T16:09:26.722Z,16.73
2019-04-14T16:12:11.790Z,17.62
2019-04-14T16:14:40.747Z,15.93
2019-04-14T16:17:10.082Z,18.12
2019-04-14T16:19:55.559Z,18.10
2019-04-14T16:22:22.853Z,16.55
2019-04-14T16:24:50.174Z,16.97
2019-04-14T16:27:19.094Z,19.45
2019-04-14T16:30:00.131Z,17.95
2019-04-14T16:32:29.229Z,17.73
2019-04-14T16:34:58.157Z,18.52
2019-04-14T16:37:25.480Z,17.30
2019-04-14T16:39:52.771Z,17.52
2019-04-14T16:42:20.079Z,16.95
2019-04-14T16:44:47.376Z,17.20
2019-04-14T16:47:14.669Z,16.77
2019-04-14T16:49:41.981Z,16.65
2019-04-14T16:52:10.916Z,17.07
2019-04-14T16:54:48.642Z,16.10
2019-04-14T16:57:33.497Z,17.48
2019-04-14T17:00:00.812Z,17.42
2019-04-14T17:02:28.104Z,16.12
2019-04-14T17:04:55.400Z,15.98
2019-04-14T17:07:22.715Z,15.20
2019-04-14T17:09:50.004Z,15.03
2019-04-14T17:12:17.299Z,15.30
2019-04-14T17:14:58.362Z,14.75
2019-04-14T17:17:33.020Z,14.73
2019-04-14T17:20:07.818Z,13.70
2019-04-14T17:22:36.741Z,14.28
2019-04-14T17:25:06.869Z,14.15
2019-04-14T17:27:35.794Z,13.00
2019-04-14T17:30:05.702Z,13.25
2019-04-14T17:32:34.662Z,12.82
2019-04-14T17:35:09.284Z,12.37
2019-04-14T17:37:40.853Z,12.33
2019-04-14T17:40:09.796Z,12.93
2019-04-14T17:42:41.457Z,13.65
2019-04-14T17:45:10.376Z,13.93
2019-04-14T17:47:39.338Z,11.70
2019-04-14T17:50:08.640Z,13.15
2019-04-14T17:52:37.597Z,13.30
2019-04-14T17:55:21.067Z,13.40
2019-04-14T17:58:04.761Z,15.50
2019-04-14T18:00:36.396Z,14.98
2019-04-14T18:03:07.886Z,13.95
2019-04-14T18:05:42.616Z,13.85
2019-04-14T18:08:29.216Z,15.30
2019-04-14T18:10:58.149Z,19.92
2019-04-14T18:13:29.857Z,16.25
2019-04-14T18:15:58.789Z,13.60
2019-04-14T18:18:39.761Z,14.93
2019-04-14T18:21:08.723Z,14.28
2019-04-14T18:23:36.032Z,14.70
2019-04-14T18:26:03.828Z,14.58
2019-04-14T18:28:35.760Z,14.45
2019-04-14T18:31:10.637Z,14.73
2019-04-14T18:33:48.645Z,16.42
2019-04-14T18:36:17.592Z,15.88
2019-04-14T18:38:49.251Z,15.40
2019-04-14T18:41:18.178Z,15.05
2019-04-14T18:43:47.127Z,14.20
2019-04-14T18:46:16.084Z,13.75
2019-04-14T18:48:45.056Z,14.45
2019-04-14T18:51:14.005Z,14.10
2019-04-14T18:53:45.604Z,14.70
2019-04-14T18:56:30.797Z,13.78
2019-04-14T18:59:02.593Z,15.30
2019-04-14T19:01:31.553Z,13.72
2019-04-14T19:03:58.835Z,14.50
2019-04-14T19:06:26.121Z,14.60
2019-04-14T19:08:53.446Z,14.95
2019-04-14T19:11:25.077Z,14.35
2019-04-14T19:13:56.961Z,15.50
2019-04-14T19:16:39.167Z,15.53
2019-04-14T19:19:02.177Z,15.38
2019-04-14T19:21:31.106Z,15.00
2019-04-14T19:23:58.424Z,14.18
2019-04-14T19:26:25.716Z,16.57
2019-04-14T19:28:53.036Z,15.38
2019-04-14T19:31:20.330Z,15.38
2019-04-14T19:33:47.621Z,16.70
2019-04-14T19:36:14.941Z,15.93
2019-04-14T19:38:42.233Z,16.10
2019-04-14T19:41:09.519Z,17.00
2019-04-14T19:43:36.840Z,16.25
2019-04-14T19:46:04.125Z,17.42
2019-04-14T19:48:31.448Z,17.45
2019-04-14T19:50:58.748Z,17.12
2019-04-14T19:53:26.043Z,19.07
2019-04-14T19:55:53.359Z,17.70
2019-04-14T19:58:20.652Z,18.23
2019-04-14T20:00:48.137Z,19.32
2019-04-14T20:03:15.428Z,17.62
2019-04-14T20:05:42.775Z,18.62
2019-04-14T20:08:10.100Z,19.40
2019-04-14T20:10:37.399Z,18.25
2019-04-14T20:13:04.721Z,18.62
2019-04-14T20:15:39.200Z,18.00
2019-04-14T20:18:11.209Z,19.35
2019-04-14T20:20:40.140Z,19.32
2019-04-14T20:23:09.191Z,19.27
2019-04-14T20:25:46.797Z,18.27
2019-04-14T20:28:15.750Z,19.95
2019-04-14T20:30:44.674Z,19.48
2019-04-14T20:33:11.973Z,20.62
2019-04-14T20:35:39.364Z,20.70
2019-04-14T20:38:06.653Z,19.62
2019-04-14T20:40:33.964Z,20.43
2019-04-14T20:43:01.257Z,22.93
2019-04-14T20:45:28.575Z,22.60
2019-04-14T20:47:55.867Z,21.97
2019-04-14T20:50:23.196Z,21.45
2019-04-14T20:52:50.545Z,23.65
2019-04-14T20:55:17.770Z,24.75
2019-04-14T20:57:45.088Z,23.05
2019-04-14T21:00:12.380Z,22.67
2019-04-14T21:02:59.555Z,24.60
2019-04-14T21:05:28.484Z,23.18
2019-04-14T21:07:59.966Z,23.35
2019-04-14T21:10:28.929Z,22.82
2019-04-14T21:12:57.853Z,24.15
2019-04-14T21:15:32.833Z,23.87
2019-04-14T21:18:07.798Z,24.60
2019-04-14T21:20:45.852Z,25.43
2019-04-14T21:23:14.793Z,27.85
2019-04-14T21:25:59.547Z,25.62
2019-04-14T21:28:25.754Z,27.07
2019-04-14T21:31:06.467Z,25.37
2019-04-14T21:33:44.408Z,25.92
2019-04-14T21:36:22.820Z,25.48
2019-04-14T21:38:57.865Z,26.17
2019-04-14T21:41:26.820Z,26.75
2019-04-14T21:43:54.104Z,27.98
2019-04-14T21:46:21.419Z,25.20
2019-04-14T21:48:48.740Z,25.90
2019-04-14T21:51:16.021Z,27.35
2019-04-14T21:53:43.908Z,28.83
2019-04-14T21:56:13.668Z,29.00
2019-04-14T21:58:57.777Z,29.82
2019-04-14T22:01:44.225Z,29.70
2019-04-14T22:04:15.918Z,33.30
2019-04-14T22:06:44.844Z,30.57
2019-04-14T22:09:16.497Z,30.82
2019-04-14T22:11:43.821Z,30.92
2019-04-14T22:14:11.111Z,31.15
2019-04-14T22:16:38.408Z,33.40
2019-04-14T22:19:05.725Z,32.03
2019-04-14T22:21:33.014Z,31.73
2019-04-14T22:24:02.069Z,33.95
2019-04-14T22:26:29.256Z,32.03
2019-04-14T22:28:56.573Z,30.20
2019-04-14T22:31:23.860Z,34.40
2019-04-14T22:33:51.153Z,32.78
2019-04-14T22:36:18.473Z,32.75
2019-04-14T22:38:45.840Z,33.92
2019-04-14T22:41:13.132Z,33.42
2019-04-14T22:43:40.453Z,32.78
2019-04-14T22:46:07.773Z,31.77
2019-04-14T22:48:35.064Z,33.10
2019-04-14T22:51:02.352Z,33.35
2019-04-14T22:53:29.689Z,34.25
2019-04-14T22:55:56.965Z,34.80
2019-04-14T22:58:24.282Z,33.35
2019-04-14T23:01:01.991Z,31.40
2019-04-14T23:03:44.361Z,32.33
2019-04-14T23:06:28.153Z,35.00
2019-04-14T23:08:57.080Z,37.40
2019-04-14T23:11:41.943Z,33.98
2019-04-14T23:14:16.758Z,34.10
2019-04-14T23:17:02.118Z,34.50
2019-04-14T23:19:36.786Z,34.48
2019-04-14T23:22:09.700Z,34.43
2019-04-14T23:24:38.625Z,32.75
2019-04-14T23:27:05.913Z,33.95
2019-04-14T23:29:33.228Z,34.53
2019-04-14T23:32:00.516Z,35.33
2019-04-14T23:34:27.872Z,39.35
2019-04-14T23:36:55.193Z,35.83
2019-04-14T23:39:22.484Z,37.48
2019-04-14T23:41:49.801Z,42.00
2019-04-14T23:44:17.092Z,36.23
2019-04-14T23:46:44.385Z,34.92
2019-04-14T23:49:11.692Z,38.80
2019-04-14T23:51:38.985Z,43.95
2019-04-14T23:54:06.284Z,37.95
2019-04-14T23:56:33.586Z,36.25
2019-04-14T23:59:00.873Z,40.65
